Ana Sayfa
METAR-TAF:

METAR-TAF

Havaalanları :

Washington, Pensilvanya, Amerika Birleşik Devletleri

Enlem: 40-08N, Boylam: 080-17W, yükseklik: 361 m

Güncel hava durumu gözlemi

Rapor saat 18:56 UTC de 39 dakika önce yapıldı.
Rüzgar batıdan 6 kt
Sıcaklık 23°C
Nem 89%
Basınç 1014 hPa
Görüş mesafesi: 16.1 km
2200 ft yükseklikte çok bulutlu

METAR: KAFJ 051856Z AUTO 28006KT 10SM OVC022 23/21 A2993 RMK AO2 SLP129 T02330206

Saat: 15:35 (19:35 UTC)


TAF: eksik

4.000'den fazla havaalanı için hava durumu gözlemleri ve tahminleri (METAR ve TAF raporları).

Kullanılabilir istasyonlar harita üzerinde sarı ve kırmızı noktalarla gösterilir.

İstasyonun adını görmek için fareyi noktanın üzerinde gezdirin.

Sonrasında hava gözlem ve tahminlerini görmek için tıklayın.

Haritayı değiştirmek için: yaklaştırmak için siyah artı işaretli yeşil düğmeye ve uzaklaştırmak için de eksi işaretli düğmeye hızla tıklayın; bitişik haritalar için yeşil okları kullanın.


METAR-TAF: